Time;durP1;ratioP1;P1;durP2;ratioP2;P2;SDS_P1;SDS_P2;PMS_P1;PMS_P2;Temp;Humidity;BMP_temperature;BMP_pressure;BME280_temperature;BME280_humidity;BME280_pressure;Samples;Min_cycle;Max_cycle;Signal;HPM_P1;HPM_P2
2022/09/07 00:01:00;;;;;;;8.33;7.63;;;18.00;94.10;;;;;;5033201;28;20468;-58
2022/09/07 00:03:27;;;;;;;9.37;8.37;;;17.90;94.30;;;;;;5033634;28;20587;-59
2022/09/07 00:05:55;;;;;;;11.43;9.17;;;17.90;94.40;;;;;;5033300;28;20476;-59
2022/09/07 00:08:26;;;;;;;10.33;8.27;;;17.90;94.60;;;;;;5033332;28;20449;-59
2022/09/07 00:10:55;;;;;;;10.13;9.20;;;17.90;94.80;;;;;;5033324;28;20499;-58
2022/09/07 00:13:24;;;;;;;9.60;8.80;;;17.90;95.10;;;;;;5033564;28;20851;-59
2022/09/07 00:15:52;;;;;;;9.77;8.77;;;17.80;95.30;;;;;;5033602;28;20914;-59
2022/09/07 00:18:20;;;;;;;9.67;8.70;;;17.80;95.40;;;;;;5033377;28;20456;-59
2022/09/07 00:20:47;;;;;;;10.50;8.70;;;17.80;95.70;;;;;;5033460;28;20547;-60
2022/09/07 00:23:14;;;;;;;9.53;8.70;;;17.80;95.90;;;;;;5033669;28;20488;-58
2022/09/07 00:25:43;;;;;;;11.20;10.10;;;17.80;96.00;;;;;;5035422;28;20526;-59
2022/09/07 00:28:10;;;;;;;9.50;8.50;;;17.80;96.10;;;;;;5037567;28;20860;-59
2022/09/07 00:30:42;;;;;;;10.03;9.03;;;17.80;96.30;;;;;;5037797;28;20815;-58
2022/09/07 00:33:09;;;;;;;10.40;9.30;;;17.80;96.40;;;;;;5037367;28;20913;-59
2022/09/07 00:35:40;;;;;;;10.30;9.30;;;17.80;96.60;;;;;;5037063;28;21027;-59
2022/09/07 00:38:07;;;;;;;9.90;9.00;;;17.80;96.70;;;;;;5037385;28;20499;-59
2022/09/07 00:40:35;;;;;;;10.83;9.90;;;17.70;96.90;;;;;;5037286;28;20515;-58
2022/09/07 00:43:04;;;;;;;11.07;9.97;;;17.70;97.10;;;;;;5037019;28;20488;-59
2022/09/07 00:45:31;;;;;;;9.73;8.83;;;17.70;97.20;;;;;;5037320;28;20495;-56
2022/09/07 00:48:03;;;;;;;10.80;9.70;;;17.70;97.30;;;;;;5037179;28;20448;-59
2022/09/07 00:50:35;;;;;;;9.93;8.80;;;17.70;97.50;;;;;;5037091;28;20468;-59
2022/09/07 00:53:05;;;;;;;10.27;9.37;;;17.70;97.60;;;;;;5037391;28;20487;-60
2022/09/07 00:55:34;;;;;;;10.50;9.50;;;17.70;97.80;;;;;;5037229;28;20476;-59
2022/09/07 00:58:03;;;;;;;15.17;9.87;;;17.70;97.90;;;;;;5037154;28;20476;-59
2022/09/07 01:00:31;;;;;;;10.83;9.83;;;17.60;98.00;;;;;;5036651;28;20461;-58
2022/09/07 01:03:00;;;;;;;11.17;10.17;;;17.60;98.20;;;;;;5036982;28;20469;-58
2022/09/07 01:05:32;;;;;;;12.40;11.20;;;17.60;98.30;;;;;;5036766;28;20445;-58
2022/09/07 01:07:59;;;;;;;10.93;9.70;;;17.60;98.40;;;;;;5037288;28;20976;-58
2022/09/07 01:10:31;;;;;;;18.03;10.63;;;17.60;98.50;;;;;;5037234;28;20480;-57
2022/09/07 01:12:58;;;;;;;10.23;9.23;;;17.60;98.60;;;;;;5037146;28;20958;-58
2022/09/07 01:15:34;;;;;;;11.80;10.63;;;17.60;98.70;;;;;;5036911;28;20534;-59
2022/09/07 01:18:10;;;;;;;12.27;10.43;;;17.70;98.80;;;;;;5036870;28;20439;-59
2022/09/07 01:20:59;;;;;;;11.30;10.20;;;17.60;98.90;;;;;;5036605;28;20464;-59
2022/09/07 01:23:54;;;;;;;11.17;10.03;;;17.60;99.00;;;;;;5037278;28;20459;-58
2022/09/07 01:26:57;;;;;;;11.27;10.07;;;17.60;99.10;;;;;;5037085;28;20440;-58
2022/09/07 01:29:31;;;;;;;12.07;9.47;;;17.60;99.30;;;;;;5037595;28;20437;-58
2022/09/07 01:32:09;;;;;;;11.30;10.20;;;17.60;99.30;;;;;;5037711;28;20512;-59
2022/09/07 01:34:38;;;;;;;14.90;11.17;;;17.70;99.40;;;;;;5037216;28;20465;-58
2022/09/07 01:37:13;;;;;;;10.67;9.60;;;17.70;99.50;;;;;;5036293;28;20448;-59
2022/09/07 01:39:48;;;;;;;11.40;10.30;;;17.70;99.70;;;;;;5036616;28;20464;-59
2022/09/07 01:42:20;;;;;;;12.27;11.07;;;17.70;99.70;;;;;;5036340;28;20499;-58
2022/09/07 01:44:53;;;;;;;12.67;11.43;;;17.70;99.80;;;;;;5036004;28;20910;-59
2022/09/07 01:47:25;;;;;;;11.77;10.57;;;17.70;99.90;;;;;;5035924;28;20460;-59
2022/09/07 01:49:59;;;;;;;11.93;10.50;;;17.70;99.90;;;;;;5039490;28;20972;-59
2022/09/07 01:52:38;;;;;;;12.40;11.20;;;17.70;99.90;;;;;;5037269;28;20476;-59
2022/09/07 01:55:10;;;;;;;12.70;11.50;;;17.60;99.90;;;;;;5036211;28;20507;-58
2022/09/07 01:57:42;;;;;;;12.07;10.97;;;17.60;99.90;;;;;;5035926;28;20441;-58
2022/09/07 02:00:14;;;;;;;12.77;11.37;;;17.60;99.90;;;;;;5036425;28;20469;-58
2022/09/07 02:02:46;;;;;;;11.83;10.93;;;17.60;99.90;;;;;;5038222;28;20456;-57
2022/09/07 02:05:18;;;;;;;12.17;10.47;;;17.60;99.90;;;;;;5036788;28;20909;-59
2022/09/07 02:07:48;;;;;;;12.80;11.70;;;17.60;99.90;;;;;;5036277;28;20440;-58
2022/09/07 02:10:21;;;;;;;12.80;11.60;;;17.60;99.90;;;;;;5035697;28;20476;-59
2022/09/07 02:12:53;;;;;;;13.20;11.83;;;17.50;99.90;;;;;;5036153;28;20519;-59
2022/09/07 02:15:27;;;;;;;13.33;12.03;;;17.50;99.90;;;;;;5035019;28;20465;-57
2022/09/07 02:17:59;;;;;;;13.90;11.97;;;17.50;99.90;;;;;;5035487;28;20479;-58
2022/09/07 02:20:31;;;;;;;12.20;11.13;;;17.50;99.90;;;;;;5035464;28;20465;-59
2022/09/07 02:23:02;;;;;;;13.40;12.20;;;17.50;99.90;;;;;;5035277;28;20443;-59
2022/09/07 02:25:34;;;;;;;14.47;12.97;;;17.50;99.90;;;;;;5035448;28;20495;-60
2022/09/07 02:28:07;;;;;;;14.07;12.63;;;17.40;99.90;;;;;;5035797;28;20488;-59
2022/09/07 02:30:36;;;;;;;12.90;11.70;;;17.40;99.90;;;;;;5037664;28;20465;-59
2022/09/07 02:33:04;;;;;;;11.97;10.87;;;17.50;99.90;;;;;;5037550;28;20476;-58
2022/09/07 02:35:31;;;;;;;13.70;12.40;;;17.40;99.90;;;;;;5036689;28;20516;-58
2022/09/07 02:38:01;;;;;;;13.97;12.57;;;17.40;99.90;;;;;;5035450;28;20473;-58
2022/09/07 02:40:29;;;;;;;15.87;14.47;;;17.40;99.90;;;;;;5036412;28;20511;-57
2022/09/07 02:42:58;;;;;;;14.60;12.97;;;17.40;99.90;;;;;;5035443;28;20511;-59
2022/09/07 02:45:26;;;;;;;14.97;13.47;;;17.40;99.90;;;;;;5034545;28;20875;-59
2022/09/07 02:48:12;;;;;;;15.20;13.70;;;17.40;99.90;;;;;;5034502;28;20453;-59
2022/09/07 02:50:54;;;;;;;15.17;13.73;;;17.40;99.90;;;;;;5033929;28;20465;-58
2022/09/07 02:53:38;;;;;;;16.53;14.43;;;17.40;99.90;;;;;;5034478;28;20477;-59
2022/09/07 02:56:18;;;;;;;15.33;13.80;;;17.40;99.90;;;;;;5035071;28;20512;-58
2022/09/07 02:58:53;;;;;;;17.17;14.27;;;17.30;99.90;;;;;;5034422;28;20437;-59
2022/09/07 03:01:32;;;;;;;18.07;14.50;;;17.30;99.90;;;;;;5034112;28;20472;-60
2022/09/07 03:04:07;;;;;;;17.37;15.63;;;17.30;99.90;;;;;;5034403;28;20464;-60
2022/09/07 03:06:40;;;;;;;16.77;14.90;;;17.30;99.90;;;;;;5034429;28;20840;-58
2022/09/07 03:09:13;;;;;;;16.00;14.40;;;17.30;99.90;;;;;;5034467;28;20501;-58
2022/09/07 03:11:40;;;;;;;15.87;14.37;;;17.30;99.90;;;;;;5034194;28;20476;-59
2022/09/07 03:14:15;;;;;;;15.77;14.07;;;17.30;99.90;;;;;;5035460;28;20480;-60
2022/09/07 03:16:43;;;;;;;15.20;13.90;;;17.40;99.90;;;;;;5033993;28;20571;-59
2022/09/07 03:19:11;;;;;;;15.33;13.90;;;17.40;99.90;;;;;;5034856;28;20518;-59
2022/09/07 03:21:39;;;;;;;15.10;13.70;;;17.50;99.90;;;;;;5034473;28;20539;-60
2022/09/07 03:24:07;;;;;;;16.40;14.80;;;17.50;99.90;;;;;;5034855;28;20444;-59
2022/09/07 03:26:35;;;;;;;14.77;13.43;;;17.60;99.90;;;;;;5034181;28;20448;-59
2022/09/07 03:29:03;;;;;;;14.13;12.83;;;17.60;99.90;;;;;;5033960;28;20441;-59
2022/09/07 03:31:32;;;;;;;14.90;13.40;;;17.60;99.90;;;;;;5033781;28;20515;-59
2022/09/07 03:33:59;;;;;;;16.87;13.93;;;17.70;99.90;;;;;;5033630;28;20492;-59
2022/09/07 03:36:29;;;;;;;14.47;13.03;;;17.70;99.90;;;;;;5033711;28;20508;-58
2022/09/07 03:38:57;;;;;;;13.90;12.50;;;17.80;99.90;;;;;;5033546;28;20485;-59
2022/09/07 03:41:25;;;;;;;13.10;11.80;;;17.70;99.90;;;;;;5033640;28;20461;-59
2022/09/07 03:43:52;;;;;;;14.33;12.80;;;17.80;99.90;;;;;;5033259;28;20972;-60
2022/09/07 03:46:19;;;;;;;14.43;12.93;;;17.80;99.90;;;;;;5033597;28;20488;-59
2022/09/07 03:48:48;;;;;;;13.63;12.43;;;17.80;99.90;;;;;;5033470;28;20480;-59
2022/09/07 03:51:16;;;;;;;13.23;11.87;;;17.80;99.90;;;;;;5033767;28;20465;-59
2022/09/07 03:53:46;;;;;;;13.37;12.07;;;17.80;99.90;;;;;;5033152;28;20481;-60
2022/09/07 03:56:17;;;;;;;13.47;12.27;;;17.90;99.90;;;;;;5033062;28;20487;-60
2022/09/07 03:58:45;;;;;;;14.87;12.10;;;17.90;99.90;;;;;;5033407;28;20435;-58
2022/09/07 04:01:14;;;;;;;14.33;12.43;;;17.90;99.90;;;;;;5032257;28;20469;-59
2022/09/07 04:03:41;;;;;;;12.13;11.00;;;18.00;99.90;;;;;;5032827;28;20933;-59
2022/09/07 04:06:09;;;;;;;12.10;11.00;;;18.00;99.90;;;;;;5033275;28;20453;-60
2022/09/07 04:10:13;;;;;;;13.93;12.63;;;18.00;99.90;;;;;;5111926;22;20593;-57
2022/09/07 04:12:40;;;;;;;15.57;12.83;;;18.00;99.90;;;;;;5070489;28;20423;-56
2022/09/07 04:15:08;;;;;;;12.93;11.83;;;18.00;99.90;;;;;;5070537;28;20504;-59
2022/09/07 04:17:35;;;;;;;14.47;12.90;;;18.00;99.90;;;;;;5070439;28;20521;-55
2022/09/07 04:20:03;;;;;;;13.90;12.60;;;17.90;99.90;;;;;;5070673;28;20482;-59
2022/09/07 04:22:30;;;;;;;15.20;13.73;;;17.80;99.90;;;;;;5070585;28;20463;-57
2022/09/07 04:24:57;;;;;;;14.70;13.40;;;17.80;99.90;;;;;;5070259;28;20443;-58
2022/09/07 04:27:26;;;;;;;14.80;13.40;;;17.80;99.90;;;;;;5071639;28;20471;-58
2022/09/07 04:29:53;;;;;;;14.33;12.93;;;17.80;99.90;;;;;;5071227;28;20511;-58
2022/09/07 04:32:21;;;;;;;15.57;12.93;;;17.80;99.90;;;;;;5070390;28;20483;-56
2022/09/07 04:34:50;;;;;;;15.20;13.30;;;17.80;99.90;;;;;;5074109;28;20474;-57
2022/09/07 04:37:17;;;;;;;14.80;13.40;;;17.80;99.90;;;;;;5071141;28;20822;-57
2022/09/07 04:39:45;;;;;;;13.80;12.40;;;17.80;99.90;;;;;;5069566;28;20479;-57
2022/09/07 04:42:12;;;;;;;13.80;12.40;;;17.80;99.90;;;;;;5069675;28;20517;-56
2022/09/07 04:44:41;;;;;;;13.00;11.80;;;17.80;99.90;;;;;;5069030;28;20474;-57
2022/09/07 04:47:08;;;;;;;14.87;13.00;;;17.80;99.90;;;;;;5069933;28;20479;-57
2022/09/07 04:49:35;;;;;;;14.23;12.90;;;17.80;99.90;;;;;;5069181;28;20860;-55
2022/09/07 04:52:03;;;;;;;14.57;13.07;;;17.80;99.90;;;;;;5073375;28;20962;-56
2022/09/07 04:54:30;;;;;;;15.67;13.83;;;17.80;99.90;;;;;;5070277;28;20483;-58
2022/09/07 04:56:57;;;;;;;14.73;12.80;;;17.80;99.90;;;;;;5068847;28;20475;-57
2022/09/07 04:59:25;;;;;;;15.90;14.30;;;17.80;99.90;;;;;;5068414;28;20482;-57
2022/09/07 05:01:53;;;;;;;16.07;14.57;;;17.80;99.90;;;;;;5068188;28;20491;-56
2022/09/07 05:04:21;;;;;;;15.27;13.70;;;17.70;99.90;;;;;;5068936;28;20443;-58
2022/09/07 05:06:48;;;;;;;19.13;13.33;;;17.70;99.90;;;;;;5065598;28;20535;-59
2022/09/07 05:09:15;;;;;;;15.50;13.03;;;17.70;99.90;;;;;;5068074;28;20514;-57
2022/09/07 05:11:42;;;;;;;21.23;13.90;;;17.70;99.90;;;;;;5068456;28;20499;-58
2022/09/07 05:14:10;;;;;;;16.40;14.03;;;17.70;99.90;;;;;;5070184;28;20486;-59
2022/09/07 05:16:38;;;;;;;14.63;13.07;;;17.80;99.90;;;;;;5069538;28;20482;-57
2022/09/07 05:19:06;;;;;;;14.40;13.10;;;17.80;99.90;;;;;;5068850;28;20501;-58
2022/09/07 05:21:35;;;;;;;16.10;14.40;;;17.80;99.90;;;;;;5054915;28;20876;-57
2022/09/07 05:24:03;;;;;;;17.33;14.57;;;17.80;99.90;;;;;;5055050;28;20911;-58
2022/09/07 05:26:33;;;;;;;15.97;14.47;;;17.80;99.90;;;;;;5054727;28;20452;-58
2022/09/07 05:29:02;;;;;;;16.63;15.13;;;17.90;99.90;;;;;;5055170;28;20515;-59
2022/09/07 05:31:30;;;;;;;18.30;16.50;;;17.90;99.90;;;;;;5055813;28;20518;-59
2022/09/07 05:33:58;;;;;;;17.10;15.27;;;17.80;99.90;;;;;;5055199;28;20831;-57
2022/09/07 05:36:27;;;;;;;18.47;16.67;;;17.70;99.90;;;;;;5054610;28;20999;-58
2022/09/07 05:38:55;;;;;;;19.63;17.90;;;17.70;99.90;;;;;;5055178;28;20986;-57
2022/09/07 05:41:24;;;;;;;18.43;16.60;;;17.70;99.90;;;;;;5053794;28;20488;-58
2022/09/07 05:43:52;;;;;;;19.80;17.97;;;17.60;99.90;;;;;;5054815;28;20497;-58
2022/09/07 05:46:20;;;;;;;19.80;17.90;;;17.60;99.90;;;;;;5053901;28;20468;-58
2022/09/07 05:48:48;;;;;;;19.30;17.43;;;17.50;99.90;;;;;;5053927;28;20569;-58
2022/09/07 05:51:15;;;;;;;20.10;18.00;;;17.50;99.90;;;;;;5054972;28;20472;-57
2022/09/07 05:53:46;;;;;;;23.77;19.20;;;17.50;99.90;;;;;;5054758;28;20489;-56
2022/09/07 05:56:13;;;;;;;23.30;19.70;;;17.40;99.90;;;;;;5054616;28;20470;-57
2022/09/07 05:58:41;;;;;;;21.20;18.97;;;17.40;99.90;;;;;;5054585;28;20542;-57
2022/09/07 06:01:12;;;;;;;22.83;20.30;;;17.30;99.90;;;;;;5054516;28;20932;-56
2022/09/07 06:03:41;;;;;;;21.70;19.47;;;17.30;99.90;;;;;;5054005;28;20468;-58
2022/09/07 06:06:11;;;;;;;22.40;20.23;;;17.30;99.90;;;;;;5054785;28;20499;-58
2022/09/07 06:08:40;;;;;;;22.97;20.70;;;17.30;99.90;;;;;;5053546;28;20873;-58
2022/09/07 06:11:10;;;;;;;22.50;19.40;;;17.30;99.90;;;;;;5054130;28;20526;-57
2022/09/07 06:13:38;;;;;;;20.40;18.30;;;17.30;99.90;;;;;;5054196;28;20491;-57
2022/09/07 06:16:07;;;;;;;21.00;18.40;;;17.30;99.90;;;;;;5054130;28;20455;-57
2022/09/07 06:18:36;;;;;;;20.47;18.30;;;17.30;99.90;;;;;;5054006;28;20904;-57
2022/09/07 06:21:04;;;;;;;20.33;18.43;;;17.40;99.90;;;;;;5053998;28;20995;-57
2022/09/07 06:23:31;;;;;;;20.50;18.40;;;17.50;99.90;;;;;;5053859;28;20480;-57
2022/09/07 06:25:59;;;;;;;22.00;19.80;;;17.50;99.90;;;;;;5054006;28;20853;-58
2022/09/07 06:28:32;;;;;;;23.17;20.97;;;17.70;99.90;;;;;;5053632;28;20872;-56
2022/09/07 06:31:01;;;;;;;23.60;19.40;;;17.80;99.90;;;;;;5053662;28;20473;-59
2022/09/07 06:33:28;;;;;;;20.73;18.73;;;17.90;99.90;;;;;;5053438;28;20833;-57
2022/09/07 06:35:57;;;;;;;21.10;18.80;;;17.90;99.90;;;;;;5053309;28;20444;-57
2022/09/07 06:38:25;;;;;;;19.80;18.00;;;18.00;99.90;;;;;;5052533;28;20956;-57
2022/09/07 06:40:52;;;;;;;19.70;17.80;;;18.00;99.90;;;;;;5053430;28;20506;-56
2022/09/07 06:43:19;;;;;;;20.27;18.17;;;18.10;99.90;;;;;;5053981;28;20467;-57
2022/09/07 06:45:53;;;;;;;19.53;16.50;;;18.10;99.90;;;;;;5054188;28;20480;-58
2022/09/07 06:48:21;;;;;;;23.80;18.60;;;18.10;99.90;;;;;;5053886;28;20440;-57
2022/09/07 06:50:56;;;;;;;21.50;17.90;;;18.10;99.90;;;;;;5055039;28;20524;-57
2022/09/07 06:53:23;;;;;;;18.60;16.80;;;18.10;99.90;;;;;;5053803;28;20450;-55
2022/09/07 06:55:51;;;;;;;20.33;18.30;;;18.10;99.90;;;;;;5052435;28;20578;-56
2022/09/07 06:58:18;;;;;;;19.10;17.10;;;18.20;99.90;;;;;;5054533;28;20487;-57
2022/09/07 07:00:46;;;;;;;19.23;17.50;;;18.30;99.90;;;;;;5054848;28;20499;-58
2022/09/07 07:03:15;;;;;;;17.97;16.13;;;18.40;99.90;;;;;;5055677;28;20471;-57
2022/09/07 07:05:43;;;;;;;17.47;15.67;;;18.50;99.90;;;;;;5054320;28;20444;-57
2022/09/07 07:08:10;;;;;;;18.13;16.23;;;18.70;99.90;;;;;;5053639;28;20448;-57
2022/09/07 07:10:39;;;;;;;17.43;15.77;;;18.90;99.90;;;;;;5053842;28;21003;-57
2022/09/07 07:13:07;;;;;;;17.63;15.93;;;19.10;99.90;;;;;;5054614;28;20432;-57
2022/09/07 07:15:35;;;;;;;17.37;15.77;;;19.30;99.90;;;;;;5054355;28;20484;-56
2022/09/07 07:18:02;;;;;;;15.97;13.73;;;19.60;99.90;;;;;;5054007;28;20443;-56
2022/09/07 07:20:31;;;;;;;14.03;12.73;;;19.80;99.90;;;;;;5053524;28;20492;-56
2022/09/07 07:22:58;;;;;;;16.00;13.23;;;20.00;99.90;;;;;;5053435;28;20476;-57
2022/09/07 07:25:26;;;;;;;14.03;12.63;;;20.20;99.90;;;;;;5053231;28;20480;-55
2022/09/07 07:27:53;;;;;;;15.00;13.60;;;20.30;99.90;;;;;;5053834;28;20453;-56
2022/09/07 07:30:21;;;;;;;14.60;13.20;;;20.50;99.90;;;;;;5054258;28;20490;-56
2022/09/07 07:32:48;;;;;;;14.30;12.90;;;20.60;99.90;;;;;;5054304;28;20975;-57
2022/09/07 07:35:16;;;;;;;13.07;11.87;;;20.70;99.90;;;;;;5053792;28;20444;-55
2022/09/07 07:37:46;;;;;;;12.97;11.70;;;20.90;99.90;;;;;;5053703;28;20450;-57
2022/09/07 07:40:14;;;;;;;14.07;12.67;;;20.90;99.90;;;;;;5053667;28;20904;-56
2022/09/07 07:42:42;;;;;;;12.90;11.57;;;20.90;99.90;;;;;;5054342;28;20545;-55
2022/09/07 07:45:11;;;;;;;12.33;11.33;;;21.00;99.90;;;;;;5054613;28;20950;-54
2022/09/07 07:47:38;;;;;;;12.37;11.20;;;21.10;99.90;;;;;;5053267;28;20876;-55
2022/09/07 07:50:07;;;;;;;12.53;10.50;;;21.30;99.90;;;;;;5053009;28;20510;-57
2022/09/07 07:52:35;;;;;;;11.60;10.40;;;21.40;99.90;;;;;;5053762;28;20455;-56
2022/09/07 07:55:05;;;;;;;12.17;11.07;;;21.50;99.90;;;;;;5053317;28;20497;-55
2022/09/07 07:57:32;;;;;;;13.13;11.50;;;21.50;99.90;;;;;;5052730;28;20442;-55
2022/09/07 08:00:00;;;;;;;12.33;11.27;;;21.50;99.90;;;;;;5052293;28;20443;-56
2022/09/07 08:02:27;;;;;;;11.73;10.60;;;21.60;99.90;;;;;;5052600;28;20486;-55
2022/09/07 08:04:54;;;;;;;12.20;11.20;;;21.60;99.90;;;;;;5052911;28;20451;-56
2022/09/07 08:07:21;;;;;;;11.57;10.43;;;21.70;99.90;;;;;;5052473;28;20505;-56
2022/09/07 08:09:49;;;;;;;11.17;9.83;;;21.80;99.80;;;;;;5052386;28;20472;-57
2022/09/07 08:12:20;;;;;;;11.30;10.30;;;21.90;99.60;;;;;;5052709;28;20451;-55
2022/09/07 08:14:48;;;;;;;11.20;10.20;;;22.00;99.20;;;;;;5052564;28;20451;-55
2022/09/07 08:17:17;;;;;;;11.73;9.77;;;22.20;98.70;;;;;;5052475;28;20444;-56
2022/09/07 08:19:45;;;;;;;12.93;10.27;;;22.40;98.20;;;;;;5052357;28;20475;-56
2022/09/07 08:22:12;;;;;;;10.33;9.53;;;22.60;97.60;;;;;;5052819;28;20471;-54
2022/09/07 08:24:40;;;;;;;11.70;10.60;;;22.70;96.90;;;;;;5052764;28;20457;-56
2022/09/07 08:27:07;;;;;;;10.97;9.97;;;22.80;96.40;;;;;;5052400;28;20440;-54
2022/09/07 08:29:36;;;;;;;12.13;10.40;;;22.80;96.00;;;;;;5052610;28;20505;-56
2022/09/07 08:32:05;;;;;;;11.37;10.27;;;22.80;95.70;;;;;;5052483;28;20979;-53
2022/09/07 08:34:32;;;;;;;10.83;9.70;;;22.90;95.30;;;;;;5052390;28;20544;-55
2022/09/07 08:36:59;;;;;;;12.60;11.37;;;22.90;95.00;;;;;;5052833;28;20444;-54
2022/09/07 08:39:27;;;;;;;10.93;9.83;;;23.10;94.70;;;;;;5052739;28;20440;-55
2022/09/07 08:42:20;;;;;;;11.67;10.67;;;23.20;94.30;;;;;;5051710;28;20471;-55
2022/09/07 08:44:53;;;;;;;12.20;10.93;;;23.30;94.00;;;;;;5051787;28;20842;-54
2022/09/07 08:47:29;;;;;;;12.93;11.10;;;23.40;93.40;;;;;;5052224;28;20952;-55
2022/09/07 08:50:03;;;;;;;11.27;10.03;;;23.40;93.10;;;;;;5052208;28;20464;-57
2022/09/07 08:52:39;;;;;;;12.63;10.07;;;23.40;92.80;;;;;;5052119;28;20436;-54
2022/09/07 08:55:14;;;;;;;11.10;10.20;;;23.50;92.50;;;;;;5053026;28;20798;-55
2022/09/07 08:57:46;;;;;;;9.63;8.80;;;23.50;92.00;;;;;;5055729;28;20880;-55
2022/09/07 09:00:16;;;;;;;10.60;9.50;;;23.50;91.90;;;;;;5055808;28;20457;-57
2022/09/07 09:02:44;;;;;;;10.17;9.23;;;23.50;91.80;;;;;;5055753;28;20814;-56
2022/09/07 09:05:23;;;;;;;10.83;9.83;;;23.60;91.60;;;;;;5055595;28;20452;-55
2022/09/07 09:08:02;;;;;;;10.37;9.37;;;23.80;91.20;;;;;;5055435;28;20920;-54
2022/09/07 09:10:36;;;;;;;9.50;8.70;;;23.80;90.80;;;;;;5055510;28;20535;-55
2022/09/07 09:13:11;;;;;;;11.23;9.60;;;23.90;90.60;;;;;;5055770;28;20490;-54
2022/09/07 09:15:51;;;;;;;10.80;9.03;;;23.90;90.30;;;;;;5055681;28;20777;-55
2022/09/07 09:18:31;;;;;;;10.73;9.77;;;23.90;90.00;;;;;;5055794;28;20452;-54
2022/09/07 09:21:00;;;;;;;10.33;9.43;;;23.90;89.30;;;;;;5055779;28;20559;-54
2022/09/07 09:23:31;;;;;;;9.93;8.60;;;23.90;89.10;;;;;;5055805;28;20958;-54
2022/09/07 09:26:04;;;;;;;10.40;9.50;;;23.80;89.00;;;;;;5055741;28;20444;-55
2022/09/07 09:28:31;;;;;;;9.13;8.30;;;23.80;88.90;;;;;;5055606;28;20429;-55
2022/09/07 09:31:00;;;;;;;10.97;8.87;;;23.80;88.50;;;;;;5054909;28;21016;-56
2022/09/07 09:33:28;;;;;;;9.07;8.17;;;23.80;88.00;;;;;;5055694;28;20542;-54
2022/09/07 09:35:57;;;;;;;8.93;8.13;;;23.90;88.00;;;;;;5055153;28;20449;-54
2022/09/07 09:38:29;;;;;;;10.47;7.97;;;24.00;87.50;;;;;;5055211;28;20447;-55
2022/09/07 09:40:57;;;;;;;9.23;8.30;;;24.10;86.80;;;;;;5054949;28;20472;-56
2022/09/07 09:43:27;;;;;;;8.50;7.70;;;24.20;86.50;;;;;;5055867;28;20470;-56
2022/09/07 09:45:57;;;;;;;10.13;9.30;;;24.30;86.00;;;;;;5055249;28;20451;-55
2022/09/07 09:48:32;;;;;;;10.10;9.10;;;24.60;85.00;;;;;;5055543;28;20442;-55
2022/09/07 09:51:01;;;;;;;8.13;7.47;;;24.90;83.40;;;;;;5054844;28;20569;-55
2022/09/07 09:53:32;;;;;;;10.07;9.07;;;25.20;82.10;;;;;;5055358;28;20538;-55
2022/09/07 09:56:01;;;;;;;9.23;8.53;;;25.50;80.50;;;;;;5055982;28;20450;-54
2022/09/07 09:58:31;;;;;;;9.70;8.80;;;25.80;78.90;;;;;;5055087;28;20540;-55
2022/09/07 10:01:01;;;;;;;9.00;8.20;;;26.00;77.10;;;;;;5055194;28;20585;-55
2022/09/07 10:03:33;;;;;;;8.20;7.00;;;26.10;76.00;;;;;;5057332;28;20455;-55
2022/09/07 10:06:02;;;;;;;7.70;7.10;;;26.20;75.20;;;;;;5055673;28;20431;-56
2022/09/07 10:08:32;;;;;;;7.23;6.63;;;26.20;74.40;;;;;;5056394;28;20982;-55
2022/09/07 10:11:02;;;;;;;7.70;7.00;;;26.20;73.50;;;;;;5055498;28;20589;-55
2022/09/07 10:13:34;;;;;;;8.87;8.00;;;26.20;72.90;;;;;;5055839;28;20905;-56
2022/09/07 10:16:05;;;;;;;7.97;7.37;;;26.30;72.10;;;;;;5056430;28;20465;-56
2022/09/07 10:18:37;;;;;;;9.20;8.50;;;26.50;71.20;;;;;;5054645;28;20444;-57
2022/09/07 10:21:26;;;;;;;7.63;7.03;;;26.50;70.20;;;;;;5054267;28;20502;-55
2022/09/07 10:23:57;;;;;;;10.67;6.37;;;26.50;70.10;;;;;;5054802;28;20451;-57
2022/09/07 10:26:33;;;;;;;6.87;6.23;;;26.60;69.40;;;;;;5053959;28;20803;-53
2022/09/07 10:29:15;;;;;;;7.17;6.57;;;26.70;68.30;;;;;;5054779;28;20811;-57
2022/09/07 10:32:05;;;;;;;7.90;6.63;;;26.80;67.30;;;;;;5054818;28;20483;-57
2022/09/07 10:34:45;;;;;;;7.97;7.17;;;26.90;66.50;;;;;;5054519;28;20535;-55
2022/09/07 10:37:23;;;;;;;8.93;7.93;;;27.10;66.10;;;;;;5055130;28;20789;-56
2022/09/07 10:40:01;;;;;;;8.77;7.97;;;27.20;65.30;;;;;;5054695;28;20592;-56
2022/09/07 10:42:32;;;;;;;8.70;6.60;;;27.20;64.90;;;;;;5055520;28;20431;-56
2022/09/07 10:45:09;;;;;;;7.73;7.07;;;27.10;65.00;;;;;;5055433;28;20435;-55
2022/09/07 10:47:46;;;;;;;7.30;6.70;;;27.10;65.10;;;;;;5054662;28;20420;-55
2022/09/07 10:50:24;;;;;;;8.00;6.63;;;27.20;64.70;;;;;;5053976;28;20580;-56
2022/09/07 10:52:59;;;;;;;6.43;5.93;;;27.20;64.10;;;;;;5054932;28;20522;-54
2022/09/07 10:55:32;;;;;;;5.77;5.37;;;27.00;64.50;;;;;;5054250;28;20434;-56
2022/09/07 10:58:10;;;;;;;7.03;5.17;;;26.80;64.90;;;;;;5055105;28;20437;-55
2022/09/07 11:00:43;;;;;;;6.43;5.13;;;26.90;64.60;;;;;;5054501;28;20462;-56
2022/09/07 11:03:32;;;;;;;5.23;4.73;;;27.10;63.80;;;;;;5055098;28;20466;-54
2022/09/07 11:06:15;;;;;;;5.60;5.00;;;27.10;62.90;;;;;;5054501;28;20439;-55
2022/09/07 11:09:12;;;;;;;6.63;4.90;;;27.10;62.50;;;;;;5054849;28;20494;-55
2022/09/07 11:11:43;;;;;;;8.13;5.10;;;27.20;62.00;;;;;;5038903;28;20484;-57
2022/09/07 11:14:14;;;;;;;6.27;5.67;;;27.10;61.50;;;;;;5053450;28;20609;-56
2022/09/07 11:16:50;;;;;;;6.70;6.10;;;27.10;61.20;;;;;;5054137;28;20461;-56
2022/09/07 11:19:20;;;;;;;7.13;6.00;;;27.00;61.20;;;;;;5053684;28;20503;-56
2022/09/07 11:21:55;;;;;;;7.07;5.30;;;26.90;61.50;;;;;;5054273;28;20464;-56
2022/09/07 11:24:29;;;;;;;5.90;5.30;;;26.90;61.70;;;;;;5053930;28;20526;-56
2022/09/07 11:27:00;;;;;;;4.87;4.50;;;26.90;61.80;;;;;;5053754;28;20933;-55
2022/09/07 11:29:33;;;;;;;5.70;5.17;;;27.00;61.40;;;;;;5054787;28;20446;-54
2022/09/07 11:32:08;;;;;;;6.67;5.00;;;27.10;61.00;;;;;;5053916;28;20546;-55
2022/09/07 11:34:40;;;;;;;7.30;5.30;;;27.30;60.40;;;;;;5054118;28;20436;-55
2022/09/07 11:37:16;;;;;;;5.63;5.13;;;27.50;59.60;;;;;;5053934;28;20433;-56
2022/09/07 11:39:48;;;;;;;7.80;5.40;;;27.70;59.00;;;;;;5054013;28;20426;-55
2022/09/07 11:42:24;;;;;;;5.60;5.10;;;27.90;58.70;;;;;;5053742;28;20831;-56
2022/09/07 11:44:59;;;;;;;5.70;5.20;;;28.30;58.10;;;;;;5053981;28;20439;-55
2022/09/07 11:47:34;;;;;;;5.90;5.40;;;28.60;57.20;;;;;;5053741;28;20433;-55
2022/09/07 11:50:01;;;;;;;5.17;4.67;;;28.80;56.50;;;;;;5053893;28;20431;-55
2022/09/07 11:52:36;;;;;;;5.53;4.90;;;28.90;55.80;;;;;;5053863;28;20484;-55
2022/09/07 11:55:07;;;;;;;4.53;4.13;;;28.90;55.70;;;;;;5053536;28;20442;-54
2022/09/07 11:57:47;;;;;;;4.50;4.10;;;28.90;55.60;;;;;;5053454;28;20437;-54
2022/09/07 12:00:20;;;;;;;5.17;4.20;;;28.80;55.30;;;;;;5053132;28;20937;-55
2022/09/07 12:03:17;;;;;;;4.93;4.53;;;28.70;55.10;;;;;;5054025;28;20512;-54
2022/09/07 12:06:15;;;;;;;4.00;3.60;;;28.50;55.20;;;;;;5053836;28;20853;-55
2022/09/07 12:09:01;;;;;;;4.60;4.20;;;28.50;55.50;;;;;;5053780;28;20452;-55
2022/09/07 12:11:49;;;;;;;5.23;3.80;;;28.70;55.00;;;;;;5053597;28;20498;-55
2022/09/07 12:14:34;;;;;;;4.53;4.10;;;28.90;54.40;;;;;;5053289;28;20976;-55
2022/09/07 12:17:16;;;;;;;4.50;3.87;;;28.90;54.20;;;;;;5053366;28;20433;-55
2022/09/07 12:19:44;;;;;;;4.60;4.13;;;28.80;54.20;;;;;;5052941;28;20432;-54
2022/09/07 12:22:20;;;;;;;4.60;4.20;;;28.70;54.30;;;;;;5052585;28;20556;-54
2022/09/07 12:24:51;;;;;;;5.93;5.23;;;28.70;54.30;;;;;;5052804;28;20441;-55
2022/09/07 12:27:39;;;;;;;3.53;3.13;;;28.80;54.30;;;;;;5052420;28;20530;-56
2022/09/07 12:30:51;;;;;;;3.50;2.80;;;28.80;54.10;;;;;;5054074;28;20441;-57
2022/09/07 12:33:31;;;;;;;2.80;2.57;;;28.70;53.80;;;;;;5056940;28;20905;-55
2022/09/07 12:35:59;;;;;;;4.53;4.10;;;28.50;53.70;;;;;;5057042;28;20442;-54
2022/09/07 12:39:07;;;;;;;3.60;3.00;;;28.40;53.60;;;;;;5057479;28;20518;-55
2022/09/07 12:42:14;;;;;;;4.03;3.47;;;28.40;53.70;;;;;;5058726;28;20488;-55
2022/09/07 12:44:42;;;;;;;5.50;2.60;;;28.40;53.70;;;;;;5063521;28;20493;-56
2022/09/07 12:47:28;;;;;;;4.40;3.23;;;28.20;53.90;;;;;;5059486;28;20489;-55
2022/09/07 12:50:17;;;;;;;1.73;1.63;;;28.10;54.10;;;;;;5058429;28;20538;-55
2022/09/07 12:52:53;;;;;;;2.50;1.60;;;28.20;53.60;;;;;;5058952;28;20481;-56
2022/09/07 12:55:43;;;;;;;1.57;1.47;;;28.30;52.30;;;;;;5058603;28;20448;-54
2022/09/07 12:58:21;;;;;;;1.90;1.53;;;28.30;51.40;;;;;;5047921;28;20838;-55